Time;durP1;ratioP1;P1;durP2;ratioP2;P2;SDS_P1;SDS_P2;PMS_P1;PMS_P2;Temp;Humidity;BMP_temperature;BMP_pressure;BME280_temperature;BME280_humidity;BME280_pressure;Samples;Min_cycle;Max_cycle;Signal;HPM_P1;HPM_P2
2023/03/07 00:00:32;;;;;;;31.13;23.40;;;;;;;;;;5031892;28;20464;-47
2023/03/07 00:02:58;;;;;;;30.30;23.40;;;;;;;;;;5031923;28;20260;-47
2023/03/07 00:05:25;;;;;;;29.07;22.43;;;;;;;;;;5032043;28;20538;-48
2023/03/07 00:07:51;;;;;;;29.03;22.17;;;;;;;;;;5031905;28;20216;-49
2023/03/07 00:10:17;;;;;;;32.37;23.37;;;;;;;;;;5031063;28;21022;-48
2023/03/07 00:12:43;;;;;;;27.33;21.70;;;;;;;;;;5031784;28;20300;-48
2023/03/07 00:15:10;;;;;;;28.30;21.10;;;;;;;;;;5031843;28;20527;-47
2023/03/07 00:17:36;;;;;;;29.80;21.03;;;;;;;;;;5031674;28;20451;-48
2023/03/07 00:20:05;;;;;;;27.90;20.93;;;;;;;;;;5031707;28;20457;-47
2023/03/07 00:22:32;;;;;;;27.60;20.07;;;;;;;;;;5031529;28;20438;-49
2023/03/07 00:24:58;;;;;;;29.10;21.13;;;;;;;;;;5031910;28;20444;-48
2023/03/07 00:27:24;;;;;;;24.57;18.93;;;;;;;;;;5029825;28;20786;-48
2023/03/07 00:29:50;;;;;;;28.07;20.17;;;;;;;;;;5030140;28;20251;-48
2023/03/07 00:32:16;;;;;;;24.67;19.70;;;;;;;;;;5031633;28;20887;-48
2023/03/07 00:34:42;;;;;;;25.40;18.43;;;;;;;;;;5032037;28;20463;-49
2023/03/07 00:37:08;;;;;;;25.53;18.40;;;;;;;;;;5031799;28;20486;-49
2023/03/07 00:39:36;;;;;;;27.60;19.60;;;;;;;;;;5031601;28;20201;-48
2023/03/07 00:42:02;;;;;;;23.60;17.67;;;;;;;;;;5031819;28;20197;-49
2023/03/07 00:44:31;;;;;;;22.67;17.67;;;;;;;;;;5031760;28;20458;-49
2023/03/07 00:46:57;;;;;;;22.37;17.50;;;;;;;;;;5031933;28;20207;-49
2023/03/07 00:49:23;;;;;;;26.80;17.50;;;;;;;;;;5031869;28;20439;-48
2023/03/07 00:51:49;;;;;;;23.97;17.30;;;;;;;;;;5031614;28;20260;-48
2023/03/07 00:54:15;;;;;;;24.93;18.23;;;;;;;;;;5031597;28;20817;-48
2023/03/07 00:56:43;;;;;;;22.83;17.20;;;;;;;;;;5031557;28;20201;-48
2023/03/07 00:59:09;;;;;;;24.23;17.73;;;;;;;;;;5031768;28;20204;-48
2023/03/07 01:01:35;;;;;;;23.27;17.30;;;;;;;;;;5031455;28;20463;-48
2023/03/07 01:04:01;;;;;;;23.03;17.23;;;;;;;;;;5031417;28;20239;-48
2023/03/07 01:06:28;;;;;;;22.90;17.03;;;;;;;;;;5031527;28;20902;-48
2023/03/07 01:08:55;;;;;;;23.40;17.23;;;;;;;;;;5031768;28;20211;-48
2023/03/07 01:11:21;;;;;;;23.73;16.60;;;;;;;;;;5031433;28;20479;-48
2023/03/07 01:13:49;;;;;;;21.13;16.73;;;;;;;;;;5031359;28;20530;-47
2023/03/07 01:16:16;;;;;;;21.63;16.53;;;;;;;;;;5031492;28;20789;-48
2023/03/07 01:18:42;;;;;;;23.07;16.97;;;;;;;;;;5031442;28;20432;-48
2023/03/07 01:21:12;;;;;;;24.30;16.13;;;;;;;;;;5032221;28;20435;-48
2023/03/07 01:23:38;;;;;;;24.73;17.10;;;;;;;;;;5035059;28;20786;-48
2023/03/07 01:26:04;;;;;;;24.13;17.87;;;;;;;;;;5035065;28;20923;-48
2023/03/07 01:28:30;;;;;;;22.97;16.20;;;;;;;;;;5034812;28;20196;-49
2023/03/07 01:30:58;;;;;;;21.70;16.03;;;;;;;;;;5034957;28;21016;-48
2023/03/07 01:33:24;;;;;;;22.03;17.10;;;;;;;;;;5034995;28;20197;-48
2023/03/07 01:35:50;;;;;;;21.17;16.47;;;;;;;;;;5034891;28;20444;-49
2023/03/07 01:38:16;;;;;;;22.27;16.30;;;;;;;;;;5034812;28;20427;-48
2023/03/07 01:40:42;;;;;;;23.27;17.47;;;;;;;;;;5034717;28;20439;-48
2023/03/07 01:43:26;;;;;;;23.43;16.77;;;;;;;;;;5034838;28;20193;-49
2023/03/07 01:46:10;;;;;;;22.37;16.87;;;;;;;;;;5034093;28;20255;-49
2023/03/07 01:48:38;;;;;;;19.60;15.87;;;;;;;;;;5033855;28;20432;-48
2023/03/07 01:51:04;;;;;;;20.87;15.93;;;;;;;;;;5033770;28;20502;-48
2023/03/07 01:53:30;;;;;;;20.87;15.77;;;;;;;;;;5033795;28;20877;-48
2023/03/07 01:55:56;;;;;;;19.73;15.83;;;;;;;;;;5033579;28;20530;-49
2023/03/07 01:58:23;;;;;;;20.40;16.07;;;;;;;;;;5033768;28;20201;-48
2023/03/07 02:00:49;;;;;;;21.10;15.60;;;;;;;;;;5033236;28;20851;-48
2023/03/07 02:03:19;;;;;;;18.63;14.83;;;;;;;;;;5033203;28;21068;-48
2023/03/07 02:05:48;;;;;;;18.60;15.10;;;;;;;;;;5033241;28;20538;-48
2023/03/07 02:08:15;;;;;;;19.73;16.30;;;;;;;;;;5033273;28;20543;-48
2023/03/07 02:10:42;;;;;;;18.10;15.37;;;;;;;;;;5033386;28;20529;-48
2023/03/07 02:13:08;;;;;;;19.53;15.87;;;;;;;;;;5033219;28;20603;-48
2023/03/07 02:15:34;;;;;;;16.30;14.23;;;;;;;;;;5033000;28;20926;-49
2023/03/07 02:18:01;;;;;;;17.97;15.27;;;;;;;;;;5033273;28;20474;-49
2023/03/07 02:20:31;;;;;;;18.00;14.20;;;;;;;;;;5033135;28;20444;-46
2023/03/07 02:22:59;;;;;;;18.27;14.60;;;;;;;;;;5033318;28;20972;-47
2023/03/07 02:25:28;;;;;;;17.70;14.60;;;;;;;;;;5033136;28;20452;-48
2023/03/07 02:27:57;;;;;;;17.53;14.13;;;;;;;;;;5033455;28;20446;-47
2023/03/07 02:30:23;;;;;;;17.77;14.50;;;;;;;;;;5032992;28;20448;-48
2023/03/07 02:32:49;;;;;;;15.73;13.07;;;;;;;;;;5032800;28;20451;-47
2023/03/07 02:35:17;;;;;;;17.30;14.43;;;;;;;;;;5033708;28;20493;-47
2023/03/07 02:37:44;;;;;;;15.57;13.80;;;;;;;;;;5033658;28;20440;-47
2023/03/07 02:40:11;;;;;;;15.37;13.30;;;;;;;;;;5033645;28;20815;-47
2023/03/07 02:42:38;;;;;;;16.33;13.37;;;;;;;;;;5033553;28;20435;-47
2023/03/07 02:45:08;;;;;;;16.07;13.43;;;;;;;;;;5033604;28;20633;-47
2023/03/07 02:47:35;;;;;;;17.53;14.37;;;;;;;;;;5033416;28;20854;-47
2023/03/07 02:50:01;;;;;;;17.37;13.73;;;;;;;;;;5033539;28;20427;-47
2023/03/07 02:52:28;;;;;;;16.40;13.30;;;;;;;;;;5033406;28;20471;-48
2023/03/07 02:54:54;;;;;;;16.90;14.47;;;;;;;;;;5033377;28;20208;-47
2023/03/07 02:57:21;;;;;;;17.80;14.07;;;;;;;;;;5033617;28;20440;-48
2023/03/07 02:59:47;;;;;;;14.60;12.77;;;;;;;;;;5033221;28;20522;-47
2023/03/07 03:02:14;;;;;;;16.07;13.93;;;;;;;;;;5033307;28;20490;-47
2023/03/07 03:04:40;;;;;;;16.37;14.47;;;;;;;;;;5033170;28;20478;-48
2023/03/07 03:07:06;;;;;;;15.90;13.97;;;;;;;;;;5033330;28;20456;-47
2023/03/07 03:09:32;;;;;;;16.37;14.20;;;;;;;;;;5032924;28;20921;-47
2023/03/07 03:11:59;;;;;;;18.47;15.10;;;;;;;;;;5033279;28;20232;-47
2023/03/07 03:14:25;;;;;;;18.00;14.93;;;;;;;;;;5033053;28;20204;-47
2023/03/07 03:16:51;;;;;;;17.77;14.57;;;;;;;;;;5033041;28;20439;-49
2023/03/07 03:19:19;;;;;;;17.63;14.20;;;;;;;;;;5032857;28;20423;-47
2023/03/07 03:21:45;;;;;;;18.23;15.33;;;;;;;;;;5032795;28;20460;-48
2023/03/07 03:24:11;;;;;;;18.50;15.27;;;;;;;;;;5032844;28;21056;-48
2023/03/07 03:26:37;;;;;;;17.10;14.93;;;;;;;;;;5032698;28;20440;-48
2023/03/07 03:29:04;;;;;;;21.20;16.00;;;;;;;;;;5032855;28;20494;-48
2023/03/07 03:31:30;;;;;;;18.93;15.70;;;;;;;;;;5032641;28;20821;-47
2023/03/07 03:33:57;;;;;;;18.63;15.63;;;;;;;;;;5032701;28;20454;-47
2023/03/07 03:36:25;;;;;;;17.97;15.77;;;;;;;;;;5032685;28;20432;-48
2023/03/07 03:38:51;;;;;;;20.23;16.33;;;;;;;;;;5032414;28;20453;-48
2023/03/07 03:41:17;;;;;;;17.60;14.87;;;;;;;;;;5032640;28;20532;-48
2023/03/07 03:43:44;;;;;;;19.07;14.93;;;;;;;;;;5032537;28;20508;-48
2023/03/07 03:46:10;;;;;;;18.20;14.60;;;;;;;;;;5032341;28;20287;-48
2023/03/07 03:48:36;;;;;;;18.63;15.17;;;;;;;;;;5032370;28;20467;-48
2023/03/07 03:51:03;;;;;;;19.13;15.10;;;;;;;;;;5032299;28;20505;-49
2023/03/07 03:53:31;;;;;;;19.67;15.70;;;;;;;;;;5032439;28;20427;-49
2023/03/07 03:56:01;;;;;;;18.77;15.57;;;;;;;;;;5032385;28;20456;-48
2023/03/07 03:58:27;;;;;;;18.80;15.67;;;;;;;;;;5032304;28;20493;-48
2023/03/07 04:00:53;;;;;;;20.13;16.73;;;;;;;;;;5032546;28;20823;-48
2023/03/07 04:03:19;;;;;;;20.17;15.80;;;;;;;;;;5032103;28;20479;-48
2023/03/07 04:05:45;;;;;;;20.93;16.10;;;;;;;;;;5032002;28;20209;-48
2023/03/07 04:08:11;;;;;;;19.80;15.40;;;;;;;;;;5032254;28;20279;-47
2023/03/07 04:10:38;;;;;;;19.53;15.43;;;;;;;;;;5031817;28;20290;-48
2023/03/07 04:13:04;;;;;;;17.40;14.57;;;;;;;;;;5032121;28;20527;-48
2023/03/07 04:15:30;;;;;;;15.27;13.20;;;;;;;;;;5031902;28;20438;-49
2023/03/07 04:17:56;;;;;;;14.87;13.27;;;;;;;;;;5032163;28;20205;-49
2023/03/07 04:20:22;;;;;;;14.63;12.57;;;;;;;;;;5031933;28;20444;-48
2023/03/07 04:22:48;;;;;;;13.67;11.33;;;;;;;;;;5031813;28;20663;-48
2023/03/07 04:25:14;;;;;;;12.70;11.10;;;;;;;;;;5031901;28;20223;-49
2023/03/07 04:27:41;;;;;;;11.80;9.87;;;;;;;;;;5032049;28;20754;-49
2023/03/07 04:30:08;;;;;;;10.67;9.57;;;;;;;;;;5031884;28;20447;-49
2023/03/07 04:32:35;;;;;;;10.47;9.23;;;;;;;;;;5031712;28;20848;-49
2023/03/07 04:35:01;;;;;;;10.27;8.13;;;;;;;;;;5031896;28;20435;-48
2023/03/07 04:37:27;;;;;;;9.67;8.50;;;;;;;;;;5031800;28;20788;-49
2023/03/07 04:39:53;;;;;;;7.83;7.03;;;;;;;;;;5031673;28;20205;-49
2023/03/07 04:42:19;;;;;;;6.50;5.90;;;;;;;;;;5031741;28;20630;-49
2023/03/07 04:44:46;;;;;;;5.07;4.57;;;;;;;;;;5031983;28;20255;-49
2023/03/07 04:47:12;;;;;;;6.60;4.97;;;;;;;;;;5031716;28;20203;-48
2023/03/07 04:49:38;;;;;;;4.20;3.73;;;;;;;;;;5031570;28;20515;-48
2023/03/07 04:52:05;;;;;;;4.33;2.50;;;;;;;;;;5031659;28;20252;-48
2023/03/07 04:54:31;;;;;;;3.37;2.33;;;;;;;;;;5031684;28;20443;-48
2023/03/07 04:56:57;;;;;;;4.20;2.47;;;;;;;;;;5034023;28;20454;-48
2023/03/07 04:59:23;;;;;;;2.80;1.93;;;;;;;;;;5035662;28;20431;-48
2023/03/07 05:01:50;;;;;;;4.37;2.30;;;;;;;;;;5035385;28;20728;-48
2023/03/07 05:04:16;;;;;;;4.27;2.10;;;;;;;;;;5035296;28;20240;-48
2023/03/07 05:06:42;;;;;;;2.00;1.80;;;;;;;;;;5035566;28;20965;-47
2023/03/07 05:09:08;;;;;;;1.87;1.67;;;;;;;;;;5035417;28;20209;-47
2023/03/07 05:11:34;;;;;;;2.53;1.70;;;;;;;;;;5035165;28;20730;-47
2023/03/07 05:14:00;;;;;;;3.97;1.93;;;;;;;;;;5035350;28;20432;-47
2023/03/07 05:16:26;;;;;;;4.53;1.87;;;;;;;;;;5035465;28;20284;-47
2023/03/07 05:18:53;;;;;;;3.07;1.90;;;;;;;;;;5035139;28;20247;-48
2023/03/07 05:21:19;;;;;;;2.87;1.93;;;;;;;;;;5035195;28;20197;-48
2023/03/07 05:23:45;;;;;;;2.33;2.07;;;;;;;;;;5034906;28;20533;-48
2023/03/07 05:26:11;;;;;;;3.13;2.13;;;;;;;;;;5035234;28;20197;-48
2023/03/07 05:28:37;;;;;;;4.23;2.43;;;;;;;;;;5034983;28;20201;-48
2023/03/07 05:31:03;;;;;;;4.37;2.30;;;;;;;;;;5034943;28;20225;-47
2023/03/07 05:33:30;;;;;;;2.47;2.00;;;;;;;;;;5034773;28;20458;-48
2023/03/07 05:35:59;;;;;;;5.37;2.40;;;;;;;;;;5034933;28;20554;-48
2023/03/07 05:38:25;;;;;;;3.17;2.03;;;;;;;;;;5034873;28;20497;-48
2023/03/07 05:40:51;;;;;;;4.87;2.00;;;;;;;;;;5034773;28;20463;-48
2023/03/07 05:43:17;;;;;;;4.40;2.53;;;;;;;;;;5034734;28;20582;-48
2023/03/07 05:45:43;;;;;;;2.57;2.13;;;;;;;;;;5034548;28;20235;-49
2023/03/07 05:48:09;;;;;;;13.87;6.73;;;;;;;;;;5034690;28;20204;-49
2023/03/07 05:50:37;;;;;;;17.33;7.87;;;;;;;;;;5034422;28;20847;-49
2023/03/07 05:53:05;;;;;;;6.20;3.13;;;;;;;;;;5034687;28;20208;-49
2023/03/07 05:55:31;;;;;;;4.97;2.10;;;;;;;;;;5034335;28;20485;-49
2023/03/07 05:57:57;;;;;;;4.63;1.90;;;;;;;;;;5034566;28;20439;-49
2023/03/07 06:00:23;;;;;;;3.93;1.87;;;;;;;;;;5034519;28;20817;-49
2023/03/07 06:02:49;;;;;;;3.87;1.80;;;;;;;;;;5034001;28;20208;-49
2023/03/07 06:05:15;;;;;;;4.33;2.20;;;;;;;;;;5034331;28;20472;-49
2023/03/07 06:07:41;;;;;;;3.63;2.40;;;;;;;;;;5033313;28;20439;-48
2023/03/07 06:10:09;;;;;;;4.23;2.13;;;;;;;;;;5034480;28;20443;-48
2023/03/07 06:12:35;;;;;;;9.47;2.50;;;;;;;;;;5034236;28;20249;-49
2023/03/07 06:15:02;;;;;;;6.90;1.80;;;;;;;;;;5034151;28;20440;-49
2023/03/07 06:17:28;;;;;;;4.60;1.90;;;;;;;;;;5033742;28;20205;-49
2023/03/07 06:19:54;;;;;;;7.53;2.30;;;;;;;;;;5033636;28;20941;-48
2023/03/07 06:22:20;;;;;;;4.57;1.83;;;;;;;;;;5034075;28;20199;-49
2023/03/07 06:24:46;;;;;;;5.60;1.93;;;;;;;;;;5033509;28;20519;-50
2023/03/07 06:27:13;;;;;;;5.37;1.70;;;;;;;;;;5033824;28;20440;-49
2023/03/07 06:29:39;;;;;;;4.63;1.90;;;;;;;;;;5033885;28;20438;-49
2023/03/07 06:32:05;;;;;;;3.73;1.70;;;;;;;;;;5033488;28;20578;-49
2023/03/07 06:34:31;;;;;;;4.83;1.90;;;;;;;;;;5033756;28;20211;-49
2023/03/07 06:36:58;;;;;;;3.63;1.80;;;;;;;;;;5033737;28;20431;-49
2023/03/07 06:39:25;;;;;;;4.63;1.87;;;;;;;;;;5033622;28;20299;-49
2023/03/07 06:41:52;;;;;;;4.67;1.80;;;;;;;;;;5033591;28;20948;-49
2023/03/07 06:44:19;;;;;;;4.43;1.70;;;;;;;;;;5033794;28;20997;-49
2023/03/07 06:46:46;;;;;;;10.20;2.43;;;;;;;;;;5033701;28;20452;-48
2023/03/07 06:49:12;;;;;;;4.60;1.90;;;;;;;;;;5033722;28;20442;-48
2023/03/07 06:51:38;;;;;;;3.63;2.23;;;;;;;;;;5033498;28;20942;-48
2023/03/07 06:54:04;;;;;;;7.50;3.70;;;;;;;;;;5033715;28;20255;-48
2023/03/07 06:56:30;;;;;;;4.43;2.10;;;;;;;;;;5033630;28;20536;-47
2023/03/07 06:58:56;;;;;;;6.57;2.10;;;;;;;;;;5033819;28;20197;-48
2023/03/07 07:01:23;;;;;;;6.73;2.33;;;;;;;;;;5033502;28;20455;-47
2023/03/07 07:03:49;;;;;;;8.00;3.17;;;;;;;;;;5033428;28;20252;-47
2023/03/07 07:06:15;;;;;;;10.07;4.73;;;;;;;;;;5033519;28;20440;-48
2023/03/07 07:08:41;;;;;;;4.37;2.07;;;;;;;;;;5033373;28;20523;-47
2023/03/07 07:11:07;;;;;;;6.53;2.77;;;;;;;;;;5033224;28;20225;-47
2023/03/07 07:13:33;;;;;;;3.73;2.20;;;;;;;;;;5033132;28;21024;-48
2023/03/07 07:16:03;;;;;;;4.63;2.37;;;;;;;;;;5033318;28;20229;-48
2023/03/07 07:18:30;;;;;;;7.13;2.70;;;;;;;;;;5033227;28;20426;-48
2023/03/07 07:20:56;;;;;;;5.57;2.60;;;;;;;;;;5033106;28;20785;-48
2023/03/07 07:23:22;;;;;;;4.80;2.30;;;;;;;;;;5033103;28;20518;-48
2023/03/07 07:25:48;;;;;;;5.03;2.87;;;;;;;;;;5032942;28;20207;-48
2023/03/07 07:28:14;;;;;;;7.60;4.37;;;;;;;;;;5033241;28;20439;-47
2023/03/07 07:30:40;;;;;;;5.90;2.80;;;;;;;;;;5033041;28;20247;-49
2023/03/07 07:33:06;;;;;;;5.83;2.83;;;;;;;;;;5033015;28;20702;-49
2023/03/07 07:35:34;;;;;;;4.17;2.70;;;;;;;;;;5033018;28;20203;-49
2023/03/07 07:38:00;;;;;;;5.33;3.00;;;;;;;;;;5033035;28;20204;-47
2023/03/07 07:40:26;;;;;;;4.50;2.70;;;;;;;;;;5032897;28;20852;-49
2023/03/07 07:42:53;;;;;;;4.10;2.40;;;;;;;;;;5032688;28;20655;-49
2023/03/07 07:45:19;;;;;;;5.23;3.20;;;;;;;;;;5032898;28;20455;-47
2023/03/07 07:47:47;;;;;;;3.57;2.60;;;;;;;;;;5032605;28;20535;-49
2023/03/07 07:50:13;;;;;;;7.97;2.90;;;;;;;;;;5032826;28;20462;-48
2023/03/07 07:52:40;;;;;;;5.90;2.63;;;;;;;;;;5032539;28;20513;-52
2023/03/07 07:55:06;;;;;;;6.17;3.47;;;;;;;;;;5032433;28;20444;-48
2023/03/07 07:57:32;;;;;;;4.87;3.20;;;;;;;;;;5032653;28;20458;-48
2023/03/07 07:59:58;;;;;;;5.77;2.50;;;;;;;;;;5032532;28;20514;-50
2023/03/07 08:02:24;;;;;;;5.97;2.70;;;;;;;;;;5032337;28;20535;-50
2023/03/07 08:04:50;;;;;;;5.07;2.30;;;;;;;;;;5032104;28;20467;-48
2023/03/07 08:07:16;;;;;;;5.47;2.30;;;;;;;;;;5032385;28;20953;-48
2023/03/07 08:09:44;;;;;;;4.93;2.20;;;;;;;;;;5032307;28;20436;-48
2023/03/07 08:12:11;;;;;;;3.47;2.10;;;;;;;;;;5032401;28;20306;-48
2023/03/07 08:14:37;;;;;;;5.93;2.40;;;;;;;;;;5032204;28;20933;-49
2023/03/07 08:17:03;;;;;;;7.30;2.47;;;;;;;;;;5032321;28;20447;-49
2023/03/07 08:19:29;;;;;;;6.87;4.33;;;;;;;;;;5032079;28;20196;-49
2023/03/07 08:21:55;;;;;;;5.90;2.67;;;;;;;;;;5032258;28;20427;-49
2023/03/07 08:24:21;;;;;;;5.37;2.77;;;;;;;;;;5032168;28;20432;-49
2023/03/07 08:26:49;;;;;;;4.80;2.33;;;;;;;;;;5032102;28;20515;-49
2023/03/07 08:29:15;;;;;;;3.60;2.07;;;;;;;;;;5032007;28;20948;-50
2023/03/07 08:31:43;;;;;;;6.40;2.80;;;;;;;;;;5031509;28;20566;-49
2023/03/07 08:34:09;;;;;;;4.20;2.53;;;;;;;;;;5031748;28;20727;-50
2023/03/07 08:36:35;;;;;;;5.07;2.17;;;;;;;;;;5031645;28;20483;-50
2023/03/07 08:39:01;;;;;;;6.53;2.87;;;;;;;;;;5031637;28;20207;-50
2023/03/07 08:41:27;;;;;;;4.70;2.53;;;;;;;;;;5031862;28;20192;-50
2023/03/07 08:43:55;;;;;;;5.53;2.37;;;;;;;;;;5031999;28;20254;-50
2023/03/07 08:46:21;;;;;;;6.90;2.37;;;;;;;;;;5031604;28;20501;-50
2023/03/07 08:48:47;;;;;;;4.13;2.03;;;;;;;;;;5031565;28;20448;-49
2023/03/07 08:51:14;;;;;;;7.83;2.30;;;;;;;;;;5031845;28;20479;-50
2023/03/07 08:53:42;;;;;;;10.87;7.43;;;;;;;;;;5031597;28;20458;-49
2023/03/07 08:56:08;;;;;;;6.07;2.20;;;;;;;;;;5031594;28;20440;-49
2023/03/07 08:58:34;;;;;;;8.27;2.70;;;;;;;;;;5031536;28;20527;-49
2023/03/07 09:01:02;;;;;;;3.93;2.10;;;;;;;;;;5031359;28;20566;-49
2023/03/07 09:03:28;;;;;;;6.10;2.00;;;;;;;;;;5031580;28;20654;-49
2023/03/07 09:05:54;;;;;;;3.83;1.97;;;;;;;;;;5031473;28;20452;-49
2023/03/07 09:08:20;;;;;;;5.37;1.90;;;;;;;;;;5031496;28;20201;-50
2023/03/07 09:10:46;;;;;;;4.83;2.07;;;;;;;;;;5031315;28;20853;-50
2023/03/07 09:13:13;;;;;;;4.13;2.20;;;;;;;;;;5031571;28;20193;-49
2023/03/07 09:15:39;;;;;;;5.00;1.77;;;;;;;;;;5031459;28;20851;-49
2023/03/07 09:18:06;;;;;;;4.40;1.50;;;;;;;;;;5031548;28;20431;-49
2023/03/07 09:20:33;;;;;;;5.57;1.73;;;;;;;;;;5031489;28;20768;-49
2023/03/07 09:22:59;;;;;;;5.13;1.77;;;;;;;;;;5031558;28;20475;-49
2023/03/07 09:25:25;;;;;;;4.90;2.27;;;;;;;;;;5031466;28;20682;-49
2023/03/07 09:27:52;;;;;;;4.93;2.07;;;;;;;;;;5031322;28;20434;-49
2023/03/07 09:30:18;;;;;;;7.57;1.97;;;;;;;;;;5031411;28;20938;-49
2023/03/07 09:32:44;;;;;;;3.60;1.93;;;;;;;;;;5031256;28;20822;-50
2023/03/07 09:35:12;;;;;;;4.47;1.90;;;;;;;;;;5031540;28;20431;-50
2023/03/07 09:37:38;;;;;;;4.67;1.83;;;;;;;;;;5031187;28;20448;-50
2023/03/07 09:40:07;;;;;;;4.33;1.90;;;;;;;;;;5031315;28;20851;-50
2023/03/07 09:42:39;;;;;;;3.83;2.30;;;;;;;;;;5031129;28;20432;-50
2023/03/07 09:45:18;;;;;;;2.13;1.60;;;;;;;;;;5034977;28;20535;-49
2023/03/07 09:47:58;;;;;;;5.87;4.60;;;;;;;;;;5034704;28;20474;-50
2023/03/07 09:50:28;;;;;;;4.17;1.87;;;;;;;;;;5034541;28;20893;-49
2023/03/07 09:52:59;;;;;;;4.70;1.63;;;;;;;;;;5034458;28;20471;-49
2023/03/07 09:55:26;;;;;;;5.53;2.47;;;;;;;;;;5034747;28;20431;-49
2023/03/07 09:57:54;;;;;;;3.03;1.67;;;;;;;;;;5034371;28;20439;-49
2023/03/07 10:00:23;;;;;;;2.90;2.00;;;;;;;;;;5034429;28;20514;-49
2023/03/07 10:02:51;;;;;;;4.23;2.07;;;;;;;;;;5034197;28;20443;-49
2023/03/07 10:05:23;;;;;;;4.70;2.40;;;;;;;;;;5034636;28;20446;-49
2023/03/07 10:07:51;;;;;;;3.63;1.70;;;;;;;;;;5034201;28;20475;-49
2023/03/07 10:10:18;;;;;;;2.97;1.90;;;;;;;;;;5034462;28;20446;-49
2023/03/07 10:12:59;;;;;;;3.43;1.73;;;;;;;;;;5034102;28;20884;-48
2023/03/07 10:15:46;;;;;;;3.23;2.07;;;;;;;;;;5025643;28;20447;-48
2023/03/07 10:18:20;;;;;;;3.40;1.77;;;;;;;;;;5034375;28;20793;-48
2023/03/07 10:20:48;;;;;;;4.53;2.40;;;;;;;;;;5034231;28;20454;-49
2023/03/07 10:23:28;;;;;;;3.17;1.90;;;;;;;;;;5034013;28;20447;-48
2023/03/07 10:25:57;;;;;;;3.70;2.37;;;;;;;;;;5034098;28;20438;-48
2023/03/07 10:28:25;;;;;;;4.90;2.17;;;;;;;;;;5034202;28;20486;-49
2023/03/07 10:30:52;;;;;;;1.93;1.80;;;;;;;;;;5033835;28;20922;-48
2023/03/07 10:33:18;;;;;;;4.53;2.27;;;;;;;;;;5033900;28;20858;-48
2023/03/07 10:35:48;;;;;;;5.77;2.50;;;;;;;;;;5033891;28;20440;-50
2023/03/07 10:38:17;;;;;;;2.57;2.20;;;;;;;;;;5033802;28;20491;-49
2023/03/07 10:40:48;;;;;;;5.87;2.60;;;;;;;;;;5033576;28;20440;-49
2023/03/07 10:43:16;;;;;;;4.40;2.63;;;;;;;;;;5033788;28;20494;-49
2023/03/07 10:45:42;;;;;;;3.63;2.20;;;;;;;;;;5032884;28;20529;-49
2023/03/07 10:48:15;;;;;;;4.33;2.13;;;;;;;;;;5033750;28;20432;-49
2023/03/07 10:50:44;;;;;;;4.07;2.13;;;;;;;;;;5033746;28;20535;-49
2023/03/07 10:53:21;;;;;;;3.07;1.70;;;;;;;;;;5033346;28;21014;-50
2023/03/07 10:55:49;;;;;;;4.80;2.00;;;;;;;;;;5033015;28;20432;-51
2023/03/07 10:58:20;;;;;;;4.83;2.00;;;;;;;;;;5033347;28;21030;-50
2023/03/07 11:00:57;;;;;;;3.13;2.00;;;;;;;;;;5033081;28;20869;-50
2023/03/07 11:03:25;;;;;;;4.57;2.20;;;;;;;;;;5033199;28;20475;-50
2023/03/07 11:05:51;;;;;;;3.77;2.50;;;;;;;;;;5033100;28;20436;-50
2023/03/07 11:08:21;;;;;;;4.77;2.10;;;;;;;;;;5033176;28;20517;-49
2023/03/07 11:10:48;;;;;;;5.20;2.10;;;;;;;;;;5033174;28;20204;-50
2023/03/07 11:13:15;;;;;;;2.53;2.00;;;;;;;;;;5033048;28;20471;-50
2023/03/07 11:15:43;;;;;;;4.20;1.57;;;;;;;;;;5033013;28;20913;-49
2023/03/07 11:18:24;;;;;;;4.13;1.50;;;;;;;;;;5033140;28;20804;-51
2023/03/07 11:20:50;;;;;;;2.60;1.70;;;;;;;;;;5032821;28;20447;-49
2023/03/07 11:23:22;;;;;;;2.67;1.40;;;;;;;;;;5032920;28;20478;-50
2023/03/07 11:25:49;;;;;;;2.00;1.40;;;;;;;;;;5033119;28;20485;-50
2023/03/07 11:28:29;;;;;;;4.97;1.47;;;;;;;;;;5032733;28;20506;-51
2023/03/07 11:31:08;;;;;;;2.67;2.20;;;;;;;;;;5032872;28;20442;-51
2023/03/07 11:33:41;;;;;;;3.63;1.37;;;;;;;;;;5032882;28;20451;-50
2023/03/07 11:36:08;;;;;;;1.87;1.70;;;;;;;;;;5032863;28;20444;-51
2023/03/07 11:38:37;;;;;;;4.37;1.63;;;;;;;;;;5032681;28;20436;-51
2023/03/07 11:41:10;;;;;;;3.00;2.60;;;;;;;;;;5032708;28;20483;-50
2023/03/07 11:43:49;;;;;;;4.60;1.90;;;;;;;;;;5032659;28;20455;-50
2023/03/07 11:46:21;;;;;;;2.37;1.57;;;;;;;;;;5032690;28;20440;-51
2023/03/07 11:48:52;;;;;;;3.27;1.50;;;;;;;;;;5032307;28;20780;-51
2023/03/07 11:51:33;;;;;;;4.20;1.63;;;;;;;;;;5032501;28;20439;-52
2023/03/07 11:54:03;;;;;;;3.87;2.60;;;;;;;;;;5032333;28;20446;-51
2023/03/07 11:56:33;;;;;;;50.47;28.33;;;;;;;;;;5032434;28;20439;-52
2023/03/07 11:59:16;;;;;;;7.60;3.07;;;;;;;;;;5032264;28;20435;-50
2023/03/07 12:01:46;;;;;;;3.70;3.07;;;;;;;;;;5025298;28;20456;-51
2023/03/07 12:04:42;;;;;;;5.37;3.07;;;;;;;;;;5032397;28;20577;-51
2023/03/07 12:07:15;;;;;;;5.07;3.03;;;;;;;;;;4989668;28;20918;-51
2023/03/07 12:09:49;;;;;;;10.77;6.27;;;;;;;;;;5024029;28;20952;-50
2023/03/07 12:12:28;;;;;;;4.83;2.93;;;;;;;;;;5031987;28;20852;-51
2023/03/07 12:14:58;;;;;;;6.50;4.60;;;;;;;;;;5032042;28;20453;-51
2023/03/07 12:17:31;;;;;;;5.03;2.30;;;;;;;;;;5032021;28;20432;-50
2023/03/07 12:20:11;;;;;;;4.27;2.10;;;;;;;;;;5032022;28;20448;-51
2023/03/07 12:22:41;;;;;;;7.83;6.67;;;;;;;;;;5031853;28;20914;-49
2023/03/07 12:25:13;;;;;;;12.73;7.83;;;;;;;;;;5032582;28;20478;-49
2023/03/07 12:27:43;;;;;;;8.77;7.93;;;;;;;;;;5031825;28;20447;-50
2023/03/07 12:30:15;;;;;;;4.60;2.43;;;;;;;;;;5032072;28;20958;-49
2023/03/07 12:32:41;;;;;;;4.70;2.43;;;;;;;;;;5031835;28;20510;-49
2023/03/07 12:35:10;;;;;;;2.67;1.87;;;;;;;;;;5031607;28;20795;-50
2023/03/07 12:37:38;;;;;;;2.43;1.20;;;;;;;;;;5031627;28;20474;-49
2023/03/07 12:40:09;;;;;;;2.30;1.97;;;;;;;;;;5031819;28;20439;-50
2023/03/07 12:42:38;;;;;;;7.57;4.40;;;;;;;;;;5031667;28;20454;-50
2023/03/07 12:45:09;;;;;;;8.33;4.73;;;;;;;;;;5031836;28;20546;-49
2023/03/07 12:47:42;;;;;;;2.07;1.87;;;;;;;;;;5032112;28;20996;-50
2023/03/07 12:50:12;;;;;;;2.47;1.70;;;;;;;;;;5031533;28;20434;-49
2023/03/07 12:52:41;;;;;;;2.30;1.20;;;;;;;;;;5031830;28;20511;-49
2023/03/07 12:55:16;;;;;;;1.97;1.60;;;;;;;;;;5031639;28;20439;-50
2023/03/07 12:57:43;;;;;;;4.40;1.70;;;;;;;;;;5031645;28;20473;-50
2023/03/07 13:00:13;;;;;;;2.60;1.40;;;;;;;;;;5031645;28;20471;-50
2023/03/07 13:02:41;;;;;;;3.57;1.60;;;;;;;;;;5031267;28;20878;-50
2023/03/07 13:05:16;;;;;;;1.83;1.20;;;;;;;;;;5031574;28;20443;-50
2023/03/07 13:07:43;;;;;;;1.93;1.60;;;;;;;;;;5031560;28;20979;-51
2023/03/07 13:10:14;;;;;;;3.17;1.50;;;;;;;;;;5031667;28;20463;-51
2023/03/07 13:12:40;;;;;;;11.50;5.33;;;;;;;;;;5031569;28;20855;-50
2023/03/07 13:15:07;;;;;;;43.67;27.03;;;;;;;;;;5031683;28;20467;-52
2023/03/07 13:17:52;;;;;;;3.30;2.07;;;;;;;;;;5033099;28;20444;-50
2023/03/07 13:20:39;;;;;;;3.30;2.27;;;;;;;;;;5035212;28;20913;-49
2023/03/07 13:23:13;;;;;;;76.37;45.47;;;;;;;;;;5035001;28;20443;-49
2023/03/07 13:25:50;;;;;;;266.53;140.80;;;;;;;;;;5035077;28;20987;-49
2023/03/07 13:28:35;;;;;;;15.80;9.03;;;;;;;;;;5035086;28;20435;-51
2023/03/07 13:31:34;;;;;;;33.03;18.63;;;;;;;;;;5034713;28;20411;-51
2023/03/07 13:34:15;;;;;;;6.50;3.83;;;;;;;;;;5034793;28;20447;-50
2023/03/07 13:36:42;;;;;;;9.37;4.03;;;;;;;;;;5034751;28;20435;-48
2023/03/07 13:39:23;;;;;;;26.37;15.07;;;;;;;;;;5034717;28;20444;-50
2023/03/07 13:41:50;;;;;;;4.83;2.20;;;;;;;;;;5034388;28;20510;-50
2023/03/07 13:44:27;;;;;;;11.30;6.33;;;;;;;;;;5034787;28;20462;-51
2023/03/07 13:46:59;;;;;;;4.60;1.90;;;;;;;;;;5034726;28;20435;-50
2023/03/07 13:49:39;;;;;;;20.50;15.40;;;;;;;;;;5035055;28;20432;-50
2023/03/07 13:52:21;;;;;;;6.60;2.37;;;;;;;;;;5034521;28;20542;-49
2023/03/07 13:54:49;;;;;;;18.63;13.30;;;;;;;;;;5032659;28;20531;-49
2023/03/07 13:57:15;;;;;;;5.17;1.63;;;;;;;;;;5034296;28;20497;-50
2023/03/07 13:59:46;;;;;;;4.93;1.83;;;;;;;;;;5033780;28;20432;-53
2023/03/07 14:02:14;;;;;;;4.03;1.70;;;;;;;;;;5034303;28;20546;-51
2023/03/07 14:04:50;;;;;;;6.33;2.03;;;;;;;;;;5033900;28;20475;-49
2023/03/07 14:07:20;;;;;;;6.17;3.57;;;;;;;;;;5034033;28;20807;-49
2023/03/07 14:09:48;;;;;;;10.53;5.37;;;;;;;;;;5033754;28;20444;-51
2023/03/07 14:12:19;;;;;;;6.40;2.47;;;;;;;;;;5033859;28;20471;-50
2023/03/07 14:14:51;;;;;;;45.53;35.77;;;;;;;;;;5033664;28;20440;-49
2023/03/07 14:17:23;;;;;;;9.20;5.67;;;;;;;;;;5033741;28;20439;-50
2023/03/07 14:19:54;;;;;;;4.60;2.43;;;;;;;;;;5033530;28;20664;-49
2023/03/07 14:22:29;;;;;;;7.43;1.93;;;;;;;;;;5033693;28;20946;-49
2023/03/07 14:25:06;;;;;;;4.17;1.50;;;;;;;;;;5034058;28;20538;-49
2023/03/07 14:27:47;;;;;;;2.87;1.80;;;;;;;;;;5033395;28;20785;-50
2023/03/07 14:30:15;;;;;;;3.27;1.90;;;;;;;;;;5032798;28;20884;-49
2023/03/07 14:32:41;;;;;;;4.00;1.80;;;;;;;;;;5033504;28;20578;-50
2023/03/07 14:35:14;;;;;;;6.57;3.67;;;;;;;;;;5033585;28;20557;-50
2023/03/07 14:37:42;;;;;;;12.23;9.67;;;;;;;;;;5033737;28;20446;-50
2023/03/07 14:40:21;;;;;;;5.53;2.73;;;;;;;;;;5033560;28;20474;-49